createdAt,value
2023-04-30T00:01:27.588Z,18.60
2023-04-30T00:04:29.722Z,18.60
2023-04-30T00:07:32.890Z,18.60
2023-04-30T00:10:34.972Z,18.60
2023-04-30T00:13:39.315Z,18.60
2023-04-30T00:16:41.711Z,18.70
2023-04-30T00:19:44.083Z,18.80
2023-04-30T00:22:46.235Z,18.80
2023-04-30T00:25:49.460Z,18.80
2023-04-30T00:28:51.649Z,18.70
2023-04-30T00:31:53.805Z,18.70
2023-04-30T00:34:56.085Z,18.70
2023-04-30T00:37:58.336Z,18.70
2023-04-30T00:41:00.689Z,18.70
2023-04-30T00:44:03.042Z,18.70
2023-04-30T00:47:05.960Z,18.80
2023-04-30T00:50:09.951Z,18.90
2023-04-30T00:53:13.410Z,18.90
2023-04-30T00:56:19.269Z,19.00
2023-04-30T00:59:21.784Z,19.00
2023-04-30T01:02:24.900Z,19.00
2023-04-30T01:05:27.344Z,18.90
2023-04-30T01:08:32.108Z,18.90
2023-04-30T01:11:52.666Z,18.90
2023-04-30T01:15:02.342Z,19.00
2023-04-30T01:18:19.080Z,19.00
2023-04-30T01:21:21.888Z,18.90
2023-04-30T01:24:49.335Z,18.90
2023-04-30T01:28:09.316Z,18.80
2023-04-30T01:31:15.601Z,18.70
2023-04-30T01:34:17.744Z,18.60
2023-04-30T01:37:36.676Z,18.70
2023-04-30T01:40:48.518Z,18.70
2023-04-30T01:44:18.684Z,18.70
2023-04-30T01:47:57.731Z,18.60
2023-04-30T01:51:15.292Z,18.60
2023-04-30T01:54:44.388Z,18.60
2023-04-30T01:58:03.203Z,18.50
2023-04-30T02:01:06.381Z,18.50
2023-04-30T02:04:08.575Z,18.50
2023-04-30T02:07:11.230Z,18.60
2023-04-30T02:10:13.820Z,18.60
2023-04-30T02:13:25.141Z,18.50
2023-04-30T02:16:27.478Z,18.60
2023-04-30T02:19:29.569Z,18.40
2023-04-30T02:22:31.848Z,18.40
2023-04-30T02:25:38.102Z,18.30
2023-04-30T02:28:40.395Z,18.30
2023-04-30T02:31:42.570Z,18.20
2023-04-30T02:34:45.402Z,18.10
2023-04-30T02:37:47.546Z,18.10
2023-04-30T02:40:49.677Z,18.20
2023-04-30T02:43:53.052Z,18.10
2023-04-30T02:46:55.213Z,18.00
2023-04-30T02:49:57.433Z,17.90
2023-04-30T02:53:00.049Z,17.90
2023-04-30T02:56:02.182Z,17.80
2023-04-30T02:59:04.481Z,17.80
2023-04-30T03:02:06.950Z,17.70
2023-04-30T03:05:09.354Z,17.70
2023-04-30T03:08:11.504Z,17.70
2023-04-30T03:11:14.631Z,17.70
2023-04-30T03:14:26.845Z,17.80
2023-04-30T03:17:29.011Z,17.80
2023-04-30T03:20:31.233Z,17.80
2023-04-30T03:23:33.625Z,17.80
2023-04-30T03:26:35.866Z,17.80
2023-04-30T03:29:37.974Z,17.70
2023-04-30T03:32:40.215Z,17.60
2023-04-30T03:35:43.691Z,17.60
2023-04-30T03:38:46.097Z,17.60
2023-04-30T03:41:48.189Z,17.60
2023-04-30T03:44:50.474Z,17.60
2023-04-30T03:47:52.969Z,17.60
2023-04-30T03:50:56.310Z,17.70
2023-04-30T03:53:58.406Z,17.70
2023-04-30T03:57:03.958Z,17.60
2023-04-30T04:00:07.895Z,17.60
2023-04-30T04:03:11.162Z,17.60
2023-04-30T04:06:13.698Z,17.50
2023-04-30T04:09:15.837Z,17.50
2023-04-30T04:12:17.980Z,17.40
2023-04-30T04:15:24.870Z,17.40
2023-04-30T04:18:27.819Z,17.30
2023-04-30T04:21:30.144Z,17.30
2023-04-30T04:24:32.354Z,17.40
2023-04-30T04:27:34.633Z,17.40
2023-04-30T04:30:36.904Z,17.40
2023-04-30T04:33:39.142Z,17.40
2023-04-30T04:36:41.728Z,17.40
2023-04-30T04:39:45.289Z,17.40
2023-04-30T04:42:51.617Z,17.40
2023-04-30T04:45:53.838Z,17.30
2023-04-30T04:48:56.204Z,17.40
2023-04-30T04:51:58.429Z,17.40
2023-04-30T04:55:00.570Z,17.40
2023-04-30T04:58:03.801Z,17.40
2023-04-30T05:01:06.242Z,17.30
2023-04-30T05:04:09.993Z,17.30
2023-04-30T05:07:12.127Z,17.30
2023-04-30T05:10:14.442Z,17.40
2023-04-30T05:13:16.705Z,17.40
2023-04-30T05:16:18.908Z,17.40
2023-04-30T05:19:21.043Z,17.50
2023-04-30T05:22:23.872Z,17.50
2023-04-30T05:25:26.152Z,17.40
2023-04-30T05:28:29.337Z,17.40
2023-04-30T05:31:32.541Z,17.40
2023-04-30T05:34:34.677Z,17.30
2023-04-30T05:37:36.842Z,17.30
2023-04-30T05:40:40.745Z,17.30
2023-04-30T05:43:42.824Z,17.20
2023-04-30T05:46:44.963Z,17.20
2023-04-30T05:49:47.095Z,17.20
2023-04-30T05:52:49.285Z,17.20
2023-04-30T05:55:51.502Z,17.20
2023-04-30T05:58:53.720Z,17.00
2023-04-30T06:01:56.010Z,17.10
2023-04-30T06:04:58.387Z,17.20
2023-04-30T06:08:01.312Z,17.20
2023-04-30T06:11:05.325Z,17.20
2023-04-30T06:14:07.518Z,17.30
2023-04-30T06:17:09.674Z,17.30
2023-04-30T06:20:12.246Z,17.40
2023-04-30T06:23:14.510Z,17.30
2023-04-30T06:26:16.655Z,17.40
2023-04-30T06:29:21.267Z,17.70
2023-04-30T06:32:23.650Z,17.90
2023-04-30T06:35:25.831Z,18.10
2023-04-30T06:38:27.974Z,18.20
2023-04-30T06:41:30.111Z,18.40
2023-04-30T06:44:34.092Z,18.70
2023-04-30T06:47:38.188Z,19.10
2023-04-30T06:50:45.155Z,19.80
2023-04-30T06:53:47.489Z,20.00
2023-04-30T06:56:49.585Z,20.10
2023-04-30T06:59:52.054Z,20.00
2023-04-30T07:02:54.383Z,19.80
2023-04-30T07:05:56.855Z,19.60
2023-04-30T07:09:01.389Z,19.50
2023-04-30T07:12:06.980Z,19.50
2023-04-30T07:15:11.874Z,19.40
2023-04-30T07:18:14.215Z,19.40
2023-04-30T07:21:16.899Z,19.50
2023-04-30T07:24:19.013Z,19.50
2023-04-30T07:27:21.286Z,19.80
2023-04-30T07:30:25.206Z,20.50
2023-04-30T07:33:27.510Z,21.30
2023-04-30T07:36:29.808Z,22.30
2023-04-30T07:39:31.956Z,23.40
2023-04-30T07:42:34.125Z,24.30
2023-04-30T07:45:36.841Z,25.10
2023-04-30T07:48:39.336Z,25.50
2023-04-30T07:51:42.650Z,25.70
2023-04-30T07:54:45.485Z,26.20
2023-04-30T07:57:47.650Z,26.60
2023-04-30T08:00:49.774Z,27.00
2023-04-30T08:03:51.958Z,26.80
2023-04-30T08:06:54.303Z,26.80
2023-04-30T08:09:56.684Z,27.00
2023-04-30T08:12:59.103Z,26.90
2023-04-30T08:16:02.072Z,26.50
2023-04-30T08:19:05.360Z,26.50
2023-04-30T08:22:07.514Z,26.50
2023-04-30T08:25:12.520Z,26.40
2023-04-30T08:28:14.650Z,26.10
2023-04-30T08:31:17.767Z,26.70
2023-04-30T08:34:20.128Z,26.50
2023-04-30T08:37:22.283Z,25.80
2023-04-30T08:40:43.643Z,25.50
2023-04-30T08:43:48.935Z,25.40
2023-04-30T08:46:54.797Z,26.10
2023-04-30T08:49:57.518Z,26.80
2023-04-30T08:53:00.922Z,27.30
2023-04-30T08:56:04.518Z,27.90
2023-04-30T08:59:06.882Z,27.80
2023-04-30T09:02:10.721Z,28.20
2023-04-30T09:05:14.967Z,28.20
2023-04-30T09:08:40.576Z,28.00
2023-04-30T09:11:43.384Z,29.00
2023-04-30T09:15:05.818Z,29.30
2023-04-30T09:18:11.136Z,29.90
2023-04-30T09:21:13.397Z,30.30
2023-04-30T09:24:16.728Z,30.10
2023-04-30T09:27:24.552Z,30.10
2023-04-30T09:30:33.929Z,29.80
2023-04-30T09:33:47.535Z,30.30
2023-04-30T09:36:56.669Z,30.90
2023-04-30T09:39:59.187Z,31.50
2023-04-30T09:43:01.588Z,31.80
2023-04-30T09:46:04.551Z,32.50
2023-04-30T09:49:13.327Z,32.60
2023-04-30T09:52:16.417Z,32.40
2023-04-30T09:55:20.888Z,32.00
2023-04-30T09:58:26.303Z,32.10
2023-04-30T10:01:29.332Z,32.10
2023-04-30T10:04:37.896Z,32.60
2023-04-30T10:07:41.643Z,32.30
2023-04-30T10:10:47.528Z,32.40
2023-04-30T10:14:03.040Z,32.50
2023-04-30T10:17:13.551Z,32.30
2023-04-30T10:20:17.392Z,31.90
2023-04-30T10:23:19.766Z,32.10
2023-04-30T10:26:23.730Z,32.20
2023-04-30T10:29:26.010Z,31.80
2023-04-30T10:32:38.210Z,32.00
2023-04-30T10:36:09.938Z,32.40
2023-04-30T10:39:13.364Z,32.10
2023-04-30T10:42:15.657Z,32.20
2023-04-30T10:45:18.103Z,32.90
2023-04-30T10:48:27.060Z,32.70
2023-04-30T10:52:05.430Z,32.50
2023-04-30T10:55:10.708Z,32.70
2023-04-30T10:58:46.544Z,32.70
2023-04-30T11:02:02.318Z,32.30
2023-04-30T11:05:10.066Z,32.60
2023-04-30T11:08:12.645Z,32.50
2023-04-30T11:11:24.094Z,32.60
2023-04-30T11:14:26.355Z,32.00
2023-04-30T11:17:29.018Z,31.40
2023-04-30T11:20:31.293Z,31.50
2023-04-30T11:23:41.536Z,30.80
2023-04-30T11:27:09.066Z,31.00
2023-04-30T11:30:15.066Z,31.10
2023-04-30T11:33:18.082Z,30.70
2023-04-30T11:36:21.056Z,30.20
2023-04-30T11:39:25.954Z,29.60
2023-04-30T11:42:30.365Z,29.30
2023-04-30T11:45:32.687Z,28.50
2023-04-30T11:48:36.934Z,28.10
2023-04-30T11:51:41.345Z,27.80
2023-04-30T11:54:43.473Z,27.30
2023-04-30T11:57:47.737Z,27.20
2023-04-30T12:00:52.712Z,26.90
2023-04-30T12:03:57.721Z,26.90
2023-04-30T12:07:03.359Z,26.70
2023-04-30T12:10:06.215Z,26.70
2023-04-30T12:13:08.349Z,26.60
2023-04-30T12:16:10.827Z,26.50
2023-04-30T12:19:13.562Z,26.30
2023-04-30T12:22:16.876Z,26.10
2023-04-30T12:25:23.396Z,26.10
2023-04-30T12:28:25.597Z,26.00
2023-04-30T12:31:28.379Z,25.60
2023-04-30T12:34:33.919Z,25.80
2023-04-30T12:37:36.573Z,25.80
2023-04-30T12:40:38.811Z,25.70
2023-04-30T12:43:41.377Z,25.50
2023-04-30T12:46:43.935Z,25.50
2023-04-30T12:49:47.104Z,25.50
2023-04-30T12:52:49.279Z,25.40
2023-04-30T12:56:15.635Z,25.20
2023-04-30T12:59:17.851Z,25.30
2023-04-30T13:02:23.935Z,25.20
2023-04-30T13:05:26.880Z,25.30
2023-04-30T13:08:32.522Z,25.30
2023-04-30T13:11:36.078Z,25.40
2023-04-30T13:14:38.411Z,25.40
2023-04-30T13:17:40.863Z,25.40
2023-04-30T13:20:45.795Z,25.50
2023-04-30T13:23:52.556Z,25.80
2023-04-30T13:27:00.049Z,25.60
2023-04-30T13:30:04.085Z,25.80
2023-04-30T13:33:06.314Z,25.90
2023-04-30T13:36:08.580Z,25.90
2023-04-30T13:39:10.951Z,25.70
2023-04-30T13:42:17.036Z,25.80
2023-04-30T13:45:23.377Z,25.60
2023-04-30T13:48:25.779Z,25.60
2023-04-30T13:51:28.127Z,25.50
2023-04-30T13:54:30.254Z,25.80
2023-04-30T13:57:35.064Z,26.00
2023-04-30T14:00:38.493Z,26.10
2023-04-30T14:03:42.472Z,26.20
2023-04-30T14:06:45.573Z,26.40
2023-04-30T14:09:47.793Z,26.50
2023-04-30T14:12:49.862Z,26.30
2023-04-30T14:15:52.197Z,26.30
2023-04-30T14:18:54.316Z,26.20
2023-04-30T14:21:56.556Z,26.30
2023-04-30T14:24:59.761Z,26.20
2023-04-30T14:28:02.000Z,26.00
2023-04-30T14:31:04.660Z,25.80
2023-04-30T14:34:07.779Z,25.90
2023-04-30T14:37:09.989Z,26.00
2023-04-30T14:40:12.673Z,26.00
2023-04-30T14:43:14.816Z,25.80
2023-04-30T14:46:17.279Z,25.90
2023-04-30T14:49:19.677Z,25.80
2023-04-30T14:52:21.925Z,26.00
2023-04-30T14:55:24.451Z,26.10
2023-04-30T14:58:26.673Z,26.10
2023-04-30T15:01:30.648Z,26.10
2023-04-30T15:04:32.695Z,26.10
2023-04-30T15:07:35.125Z,26.10
2023-04-30T15:10:38.431Z,26.10
2023-04-30T15:13:40.755Z,26.00
2023-04-30T15:16:43.018Z,25.80
2023-04-30T15:19:45.275Z,25.80
2023-04-30T15:22:48.455Z,25.60
2023-04-30T15:25:50.616Z,25.60
2023-04-30T15:28:52.769Z,25.60
2023-04-30T15:31:55.152Z,25.50
2023-04-30T15:35:00.610Z,25.50
2023-04-30T15:38:03.675Z,25.50
2023-04-30T15:41:06.064Z,25.50
2023-04-30T15:44:08.460Z,25.50
2023-04-30T15:47:11.672Z,25.60
2023-04-30T15:50:16.862Z,25.50
2023-04-30T15:53:19.039Z,25.50
2023-04-30T15:56:25.800Z,25.70
2023-04-30T15:59:28.021Z,25.60
2023-04-30T16:02:30.449Z,25.50
2023-04-30T16:05:33.995Z,25.50
2023-04-30T16:08:36.949Z,25.40
2023-04-30T16:11:40.375Z,25.40
2023-04-30T16:14:42.589Z,25.30
2023-04-30T16:17:44.912Z,25.20
2023-04-30T16:20:48.915Z,25.30
2023-04-30T16:23:50.978Z,25.30
2023-04-30T16:26:53.264Z,25.20
2023-04-30T16:29:55.725Z,25.10
2023-04-30T16:32:58.373Z,25.10
2023-04-30T16:36:00.929Z,25.00
2023-04-30T16:39:03.085Z,25.00
2023-04-30T16:42:05.935Z,25.00
2023-04-30T16:45:08.891Z,25.00
2023-04-30T16:48:11.184Z,25.00
2023-04-30T16:51:14.000Z,25.00
2023-04-30T16:54:16.195Z,24.90
2023-04-30T16:57:19.421Z,25.10
2023-04-30T17:00:22.120Z,25.10
2023-04-30T17:03:24.935Z,25.10
2023-04-30T17:06:27.234Z,25.20
2023-04-30T17:09:30.018Z,25.10
2023-04-30T17:12:32.453Z,25.10
2023-04-30T17:15:34.594Z,25.00
2023-04-30T17:18:36.686Z,25.00
2023-04-30T17:21:38.811Z,25.00
2023-04-30T17:24:40.965Z,25.10
2023-04-30T17:27:43.154Z,25.10
2023-04-30T17:30:45.772Z,25.00
2023-04-30T17:33:48.739Z,24.90
2023-04-30T17:36:50.972Z,24.90
2023-04-30T17:39:53.318Z,24.90
2023-04-30T17:42:55.531Z,24.90
2023-04-30T17:45:57.769Z,24.80
2023-04-30T17:49:01.884Z,24.70
2023-04-30T17:52:05.931Z,24.80
2023-04-30T17:55:08.948Z,24.80
2023-04-30T17:58:11.770Z,24.80
2023-04-30T18:01:14.803Z,24.80
2023-04-30T18:04:19.363Z,24.70
2023-04-30T18:07:21.758Z,24.60
2023-04-30T18:10:23.879Z,24.60
2023-04-30T18:13:27.625Z,24.60
2023-04-30T18:16:30.249Z,24.40
2023-04-30T18:19:32.872Z,24.30
2023-04-30T18:22:35.073Z,24.30
2023-04-30T18:25:37.517Z,24.10
2023-04-30T18:28:39.720Z,23.90
2023-04-30T18:31:42.047Z,23.90
2023-04-30T18:34:45.281Z,23.70
2023-04-30T18:37:47.842Z,23.70
2023-04-30T18:40:56.293Z,23.40
2023-04-30T18:43:58.682Z,23.40
2023-04-30T18:47:01.161Z,23.30
2023-04-30T18:50:03.825Z,23.20
2023-04-30T18:53:07.191Z,23.20
2023-04-30T18:56:10.508Z,23.00
2023-04-30T18:59:12.773Z,23.10
2023-04-30T19:02:15.895Z,23.00
2023-04-30T19:05:18.251Z,23.00
2023-04-30T19:08:20.451Z,22.70
2023-04-30T19:11:22.680Z,22.70
2023-04-30T19:14:24.873Z,22.40
2023-04-30T19:17:27.779Z,22.20
2023-04-30T19:20:29.900Z,22.10
2023-04-30T19:23:32.615Z,22.00
2023-04-30T19:26:37.433Z,21.80
2023-04-30T19:29:39.690Z,21.80
2023-04-30T19:32:42.358Z,21.60
2023-04-30T19:35:49.618Z,21.60
2023-04-30T19:38:52.716Z,21.50
2023-04-30T19:41:55.270Z,21.40
2023-04-30T19:44:58.393Z,21.30
2023-04-30T19:48:00.521Z,21.20
2023-04-30T19:51:05.945Z,21.10
2023-04-30T19:54:10.632Z,21.10
2023-04-30T19:57:12.814Z,21.00
2023-04-30T20:00:16.252Z,20.90
2023-04-30T20:03:19.946Z,20.80
2023-04-30T20:06:22.390Z,20.70
2023-04-30T20:09:25.335Z,20.50
2023-04-30T20:12:27.600Z,20.50
2023-04-30T20:15:30.236Z,20.40
2023-04-30T20:18:32.530Z,20.40
2023-04-30T20:21:34.817Z,20.30
2023-04-30T20:24:37.060Z,20.30
2023-04-30T20:27:39.136Z,20.10
2023-04-30T20:30:43.377Z,20.30
2023-04-30T20:33:46.192Z,20.20
2023-04-30T20:36:48.378Z,20.10
2023-04-30T20:39:50.788Z,20.10
2023-04-30T20:42:53.899Z,20.20
2023-04-30T20:45:59.049Z,20.10
2023-04-30T20:49:04.640Z,20.10
2023-04-30T20:52:07.333Z,20.00
2023-04-30T20:55:10.808Z,20.00
2023-04-30T20:58:13.018Z,20.00
2023-04-30T21:01:15.495Z,19.90
2023-04-30T21:04:17.861Z,20.00
2023-04-30T21:07:20.099Z,19.90
2023-04-30T21:10:22.511Z,19.90
2023-04-30T21:13:24.779Z,19.80
2023-04-30T21:16:28.138Z,19.80
2023-04-30T21:19:31.717Z,19.70
2023-04-30T21:22:34.482Z,19.60
2023-04-30T21:25:38.227Z,19.60
2023-04-30T21:28:40.493Z,19.60
2023-04-30T21:31:42.696Z,19.60
2023-04-30T21:34:45.348Z,19.50
2023-04-30T21:37:47.480Z,19.50
2023-04-30T21:40:49.718Z,19.50
2023-04-30T21:43:55.703Z,19.50
2023-04-30T21:46:57.903Z,19.40
2023-04-30T21:50:00.206Z,19.50
2023-04-30T21:53:03.472Z,19.40
2023-04-30T21:56:09.612Z,19.40
2023-04-30T21:59:11.794Z,19.40
2023-04-30T22:02:23.253Z,19.30
2023-04-30T22:05:26.277Z,19.30
2023-04-30T22:08:28.862Z,19.20
2023-04-30T22:11:31.413Z,19.20
2023-04-30T22:14:33.482Z,19.20
2023-04-30T22:17:35.716Z,19.20
2023-04-30T22:20:38.098Z,19.20
2023-04-30T22:23:40.927Z,19.20
2023-04-30T22:26:43.043Z,19.00
2023-04-30T22:29:48.961Z,19.10
2023-04-30T22:32:51.202Z,19.00
2023-04-30T22:35:53.856Z,18.90
2023-04-30T22:38:56.550Z,18.90
2023-04-30T22:41:59.408Z,18.80
2023-04-30T22:45:01.736Z,18.80
2023-04-30T22:48:04.588Z,18.80
2023-04-30T22:51:07.473Z,18.80
2023-04-30T22:54:10.139Z,18.80
2023-04-30T22:57:12.265Z,18.80
2023-04-30T23:00:15.112Z,18.80
2023-04-30T23:03:17.691Z,18.80
2023-04-30T23:06:20.907Z,18.80
2023-04-30T23:09:23.098Z,18.80
2023-04-30T23:12:25.307Z,18.80
2023-04-30T23:15:27.654Z,18.70
2023-04-30T23:18:30.591Z,18.70
2023-04-30T23:21:33.861Z,18.60
2023-04-30T23:24:37.594Z,18.70
2023-04-30T23:27:40.023Z,18.60
2023-04-30T23:30:42.413Z,18.60
2023-04-30T23:33:44.941Z,18.70
2023-04-30T23:36:47.099Z,18.60
2023-04-30T23:39:49.238Z,18.60
2023-04-30T23:42:51.806Z,18.50
2023-04-30T23:45:54.041Z,18.50
2023-04-30T23:48:56.586Z,18.40
2023-04-30T23:51:58.796Z,18.40
2023-04-30T23:55:00.988Z,18.40
2023-04-30T23:58:03.150Z,18.30
